Time;durP1;ratioP1;P1;durP2;ratioP2;P2;SDS_P1;SDS_P2;PMS_P1;PMS_P2;Temp;Humidity;BMP_temperature;BMP_pressure;BME280_temperature;BME280_humidity;BME280_pressure;Samples;Min_cycle;Max_cycle;Signal;HPM_P1;HPM_P2
2021/04/04 00:00:48;;;;;;;7.78;1.67;;;;;;;;;;5087708;27;20057;-64
2021/04/04 00:03:16;;;;;;;14.75;1.83;;;;;;;;;;5088806;27;20055;-64
2021/04/04 00:05:42;;;;;;;11.27;1.70;;;;;;;;;;5086834;27;20032;-63
2021/04/04 00:08:07;;;;;;;15.00;1.83;;;;;;;;;;5054984;27;20038;-63
2021/04/04 00:10:35;;;;;;;5.07;1.40;;;;;;;;;;5055447;27;20766;-62
2021/04/04 00:13:00;;;;;;;7.38;1.38;;;;;;;;;;5052579;27;20043;-63
2021/04/04 00:15:34;;;;;;;11.10;1.90;;;;;;;;;;5068119;27;20032;-63
2021/04/04 00:18:04;;;;;;;5.22;1.75;;;;;;;;;;5067047;27;20127;-63
2021/04/04 00:20:29;;;;;;;7.43;1.30;;;;;;;;;;5054637;27;20039;-63
2021/04/04 00:22:58;;;;;;;3.60;1.30;;;;;;;;;;5087934;27;20039;-63
2021/04/04 00:25:26;;;;;;;7.78;1.13;;;;;;;;;;5086251;27;20038;-62
2021/04/04 00:27:54;;;;;;;5.95;1.45;;;;;;;;;;5039332;27;20031;-63
2021/04/04 00:30:20;;;;;;;9.45;1.58;;;;;;;;;;5053051;27;20067;-63
2021/04/04 00:32:46;;;;;;;6.72;1.40;;;;;;;;;;5088726;27;20114;-64
2021/04/04 00:35:16;;;;;;;8.30;1.38;;;;;;;;;;5066679;27;20039;-63
2021/04/04 00:37:47;;;;;;;8.32;1.40;;;;;;;;;;5067298;27;20043;-65
2021/04/04 00:40:23;;;;;;;5.82;0.98;;;;;;;;;;5044784;27;20150;-63
2021/04/04 00:42:51;;;;;;;8.00;1.10;;;;;;;;;;5085855;27;20498;-64
2021/04/04 00:45:22;;;;;;;6.35;1.38;;;;;;;;;;5070719;27;20042;-62
2021/04/04 00:47:50;;;;;;;14.63;1.77;;;;;;;;;;5054403;27;20128;-63
2021/04/04 00:50:19;;;;;;;5.35;1.58;;;;;;;;;;5071290;27;20024;-63
2021/04/04 00:52:47;;;;;;;10.82;1.17;;;;;;;;;;5088804;27;20091;-63
2021/04/04 00:55:13;;;;;;;6.07;1.25;;;;;;;;;;5086695;27;20182;-63
2021/04/04 00:57:42;;;;;;;6.00;1.65;;;;;;;;;;5066384;27;20038;-64
2021/04/04 01:00:09;;;;;;;6.25;0.90;;;;;;;;;;5066423;27;20032;-62
2021/04/04 01:02:36;;;;;;;5.13;1.13;;;;;;;;;;5075513;27;20056;-64
2021/04/04 01:05:06;;;;;;;8.60;1.27;;;;;;;;;;5070147;27;20212;-64
2021/04/04 01:07:35;;;;;;;8.10;1.10;;;;;;;;;;5060046;27;20030;-63
2021/04/04 01:10:04;;;;;;;5.78;1.05;;;;;;;;;;5067917;27;20122;-63
2021/04/04 01:12:39;;;;;;;8.88;1.02;;;;;;;;;;5066766;28;20039;-67
2021/04/04 01:15:38;;;;;;;8.02;0.98;;;;;;;;;;5088223;27;20032;-63
2021/04/04 01:18:14;;;;;;;9.68;1.13;;;;;;;;;;5035927;27;20031;-63
2021/04/04 01:20:49;;;;;;;6.95;1.20;;;;;;;;;;5084393;27;20050;-65
2021/04/04 01:23:21;;;;;;;5.03;0.95;;;;;;;;;;5069388;27;20051;-63
2021/04/04 01:25:53;;;;;;;17.15;1.13;;;;;;;;;;5067908;27;20551;-63
2021/04/04 01:28:28;;;;;;;7.85;1.02;;;;;;;;;;5069764;27;20043;-62
2021/04/04 01:30:54;;;;;;;4.78;1.23;;;;;;;;;;5085456;27;20482;-62
2021/04/04 01:33:23;;;;;;;5.68;1.02;;;;;;;;;;5069047;28;20042;-62
2021/04/04 01:35:57;;;;;;;6.78;1.00;;;;;;;;;;5072244;28;20449;-62
2021/04/04 01:38:24;;;;;;;2.10;0.85;;;;;;;;;;5067555;28;20031;-63
2021/04/04 01:40:52;;;;;;;8.38;1.02;;;;;;;;;;5067425;28;20031;-63
2021/04/04 01:43:19;;;;;;;7.93;1.40;;;;;;;;;;5054596;28;20121;-62
2021/04/04 01:45:45;;;;;;;8.60;1.73;;;;;;;;;;5086948;27;20883;-62
2021/04/04 01:48:12;;;;;;;8.45;1.10;;;;;;;;;;5084356;27;20481;-63
2021/04/04 01:50:40;;;;;;;7.82;1.10;;;;;;;;;;5051098;28;20031;-63
2021/04/04 01:53:06;;;;;;;2.78;0.77;;;;;;;;;;5084684;27;20031;-63
2021/04/04 01:55:34;;;;;;;2.72;0.80;;;;;;;;;;5087663;27;20035;-63
2021/04/04 01:58:00;;;;;;;3.33;1.30;;;;;;;;;;5070099;28;20032;-64
2021/04/04 02:00:26;;;;;;;4.25;0.93;;;;;;;;;;5052652;28;20027;-63
2021/04/04 02:02:59;;;;;;;5.93;1.08;;;;;;;;;;5066780;27;20074;-63
2021/04/04 02:05:30;;;;;;;3.10;1.42;;;;;;;;;;5055567;28;20096;-63
2021/04/04 02:07:58;;;;;;;6.68;1.02;;;;;;;;;;5084163;28;20031;-63
2021/04/04 02:10:30;;;;;;;11.57;1.58;;;;;;;;;;5066833;28;20698;-62
2021/04/04 02:13:00;;;;;;;9.15;1.70;;;;;;;;;;5066739;28;20055;-63
2021/04/04 02:15:27;;;;;;;3.95;1.60;;;;;;;;;;5085868;28;20083;-63
2021/04/04 02:17:54;;;;;;;11.27;1.50;;;;;;;;;;5073788;28;20023;-63
2021/04/04 02:20:21;;;;;;;4.55;1.90;;;;;;;;;;5089809;28;20028;-63
2021/04/04 02:22:47;;;;;;;9.13;1.80;;;;;;;;;;5055034;28;20050;-63
2021/04/04 02:25:16;;;;;;;8.68;1.63;;;;;;;;;;5084612;28;20093;-64
2021/04/04 02:27:43;;;;;;;4.65;1.80;;;;;;;;;;5087385;28;20027;-63
2021/04/04 02:30:11;;;;;;;6.43;1.65;;;;;;;;;;5069310;28;20282;-63
2021/04/04 02:32:43;;;;;;;5.90;1.52;;;;;;;;;;5041398;28;20039;-64
2021/04/04 02:35:09;;;;;;;2.63;1.17;;;;;;;;;;5090837;28;20028;-64
2021/04/04 02:37:40;;;;;;;5.28;1.30;;;;;;;;;;5061210;28;20038;-62
2021/04/04 02:40:06;;;;;;;5.55;1.77;;;;;;;;;;5086536;28;20031;-66
2021/04/04 02:42:33;;;;;;;4.63;1.35;;;;;;;;;;5085652;28;20054;-63
2021/04/04 02:45:02;;;;;;;5.10;1.80;;;;;;;;;;5070046;28;20018;-64
2021/04/04 02:47:32;;;;;;;9.35;2.22;;;;;;;;;;5062865;28;20432;-63
2021/04/04 02:50:08;;;;;;;4.75;1.75;;;;;;;;;;5072315;28;20028;-63
2021/04/04 02:52:41;;;;;;;6.90;2.25;;;;;;;;;;5065287;28;20420;-63
2021/04/04 02:55:08;;;;;;;9.50;2.58;;;;;;;;;;5068217;28;20031;-62
2021/04/04 02:57:35;;;;;;;4.93;2.30;;;;;;;;;;5069767;28;20032;-63
2021/04/04 03:00:01;;;;;;;6.22;1.90;;;;;;;;;;5085942;27;20120;-64
2021/04/04 03:02:27;;;;;;;7.65;1.98;;;;;;;;;;5070307;28;20040;-62
2021/04/04 03:04:55;;;;;;;6.40;1.63;;;;;;;;;;5055239;28;20039;-62
2021/04/04 03:07:22;;;;;;;11.65;2.30;;;;;;;;;;5068115;28;20028;-62
2021/04/04 03:09:53;;;;;;;8.63;2.75;;;;;;;;;;5053381;28;20028;-63
2021/04/04 03:12:20;;;;;;;7.60;1.73;;;;;;;;;;5068858;28;20035;-63
2021/04/04 03:14:49;;;;;;;14.82;2.63;;;;;;;;;;5066790;28;20029;-62
2021/04/04 03:17:17;;;;;;;9.07;2.60;;;;;;;;;;5061245;28;20827;-63
2021/04/04 03:19:46;;;;;;;10.48;2.67;;;;;;;;;;5068862;28;20036;-62
2021/04/04 03:22:15;;;;;;;6.15;2.00;;;;;;;;;;5069181;28;21957;-63
2021/04/04 03:24:42;;;;;;;12.60;2.75;;;;;;;;;;5066912;28;20113;-63
2021/04/04 03:27:10;;;;;;;7.05;1.98;;;;;;;;;;5068686;28;20057;-63
2021/04/04 03:29:39;;;;;;;6.68;2.33;;;;;;;;;;5070867;28;20046;-63
2021/04/04 03:32:04;;;;;;;12.77;2.60;;;;;;;;;;5056619;28;20349;-63
2021/04/04 03:34:30;;;;;;;7.13;2.67;;;;;;;;;;5083346;27;20043;-62
2021/04/04 03:36:58;;;;;;;4.97;2.67;;;;;;;;;;5068326;28;20067;-62
2021/04/04 03:39:25;;;;;;;9.93;2.50;;;;;;;;;;5060811;28;20668;-63
2021/04/04 03:41:57;;;;;;;10.88;3.60;;;;;;;;;;5048201;28;20522;-63
2021/04/04 03:44:25;;;;;;;10.25;3.25;;;;;;;;;;5065058;28;20113;-62
2021/04/04 03:46:56;;;;;;;13.02;3.03;;;;;;;;;;5068388;28;20461;-62
2021/04/04 03:49:24;;;;;;;10.73;3.15;;;;;;;;;;5050683;28;20031;-63
2021/04/04 03:51:59;;;;;;;11.50;2.67;;;;;;;;;;5063726;28;20032;-64
2021/04/04 03:54:25;;;;;;;7.90;3.33;;;;;;;;;;5067723;28;20670;-64
2021/04/04 03:56:52;;;;;;;10.05;3.00;;;;;;;;;;5065710;28;20908;-63
2021/04/04 03:59:22;;;;;;;8.35;3.00;;;;;;;;;;5068275;28;20023;-64
2021/04/04 04:01:48;;;;;;;10.75;3.63;;;;;;;;;;5050264;28;20479;-63
2021/04/04 04:04:18;;;;;;;8.25;2.88;;;;;;;;;;5056796;28;20063;-62
2021/04/04 04:06:47;;;;;;;21.52;4.22;;;;;;;;;;5067033;28;20024;-63
2021/04/04 04:09:13;;;;;;;11.07;3.03;;;;;;;;;;5050709;28;20548;-62
2021/04/04 04:11:43;;;;;;;12.43;3.35;;;;;;;;;;5065492;28;20365;-63
2021/04/04 04:14:09;;;;;;;12.20;3.55;;;;;;;;;;5064559;28;20066;-63
2021/04/04 04:16:40;;;;;;;11.07;4.18;;;;;;;;;;5082439;27;20080;-62
2021/04/04 04:19:09;;;;;;;12.85;3.70;;;;;;;;;;5066283;28;20062;-62
2021/04/04 04:21:36;;;;;;;12.00;4.18;;;;;;;;;;5068996;28;20718;-62
2021/04/04 04:24:15;;;;;;;18.58;3.10;;;;;;;;;;5066041;28;20490;-63
2021/04/04 04:26:46;;;;;;;15.32;3.88;;;;;;;;;;5067281;28;20036;-62
2021/04/04 04:29:19;;;;;;;11.10;2.75;;;;;;;;;;5050402;28;20062;-63
2021/04/04 04:31:46;;;;;;;19.60;3.70;;;;;;;;;;5065181;28;20028;-63
2021/04/04 04:34:11;;;;;;;16.17;3.63;;;;;;;;;;5051032;28;20128;-63
2021/04/04 04:36:38;;;;;;;10.65;3.83;;;;;;;;;;5065569;28;20122;-63
2021/04/04 04:39:04;;;;;;;11.32;3.67;;;;;;;;;;5061666;28;20028;-63
2021/04/04 04:41:35;;;;;;;10.38;4.05;;;;;;;;;;5054851;28;21025;-62
2021/04/04 04:44:04;;;;;;;10.68;3.80;;;;;;;;;;5062066;28;20115;-63
2021/04/04 04:46:32;;;;;;;15.88;4.82;;;;;;;;;;5041468;28;20062;-64
2021/04/04 04:48:59;;;;;;;16.63;3.58;;;;;;;;;;5030847;28;20681;-63
2021/04/04 04:51:26;;;;;;;13.13;4.15;;;;;;;;;;5047469;28;20078;-63
2021/04/04 04:53:56;;;;;;;14.93;4.78;;;;;;;;;;5046820;28;20043;-63
2021/04/04 04:56:24;;;;;;;14.38;4.57;;;;;;;;;;5048966;28;20502;-63
2021/04/04 04:58:52;;;;;;;16.95;4.32;;;;;;;;;;5048568;28;20499;-63
2021/04/04 05:01:20;;;;;;;16.20;4.18;;;;;;;;;;5047127;28;20100;-63
2021/04/04 05:03:50;;;;;;;13.75;4.43;;;;;;;;;;5047468;28;20917;-63
2021/04/04 05:06:17;;;;;;;11.77;4.05;;;;;;;;;;5044686;28;20113;-61
2021/04/04 05:08:45;;;;;;;14.25;4.50;;;;;;;;;;5046607;28;20908;-64
2021/04/04 05:11:12;;;;;;;10.75;4.53;;;;;;;;;;5035085;28;20507;-63
2021/04/04 05:13:41;;;;;;;10.30;4.43;;;;;;;;;;5052013;28;20488;-62
2021/04/04 05:16:08;;;;;;;11.25;4.18;;;;;;;;;;5028385;28;20061;-63
2021/04/04 05:18:36;;;;;;;18.48;5.35;;;;;;;;;;5044943;28;20058;-64
2021/04/04 05:21:02;;;;;;;10.98;4.40;;;;;;;;;;5041772;28;20140;-63
2021/04/04 05:23:29;;;;;;;13.15;4.05;;;;;;;;;;5035818;28;20035;-63
2021/04/04 05:26:00;;;;;;;11.43;4.30;;;;;;;;;;5043493;28;20036;-62
2021/04/04 05:28:28;;;;;;;15.40;5.03;;;;;;;;;;5026980;28;20147;-64
2021/04/04 05:31:00;;;;;;;9.98;4.03;;;;;;;;;;5042627;28;20032;-62
2021/04/04 05:33:27;;;;;;;9.60;4.07;;;;;;;;;;5036898;28;20229;-63
2021/04/04 05:35:53;;;;;;;18.92;4.93;;;;;;;;;;5045038;28;20440;-63
2021/04/04 05:38:19;;;;;;;12.70;4.15;;;;;;;;;;5027732;28;20044;-63
2021/04/04 05:40:48;;;;;;;13.10;4.47;;;;;;;;;;5046580;28;20114;-62
2021/04/04 05:43:14;;;;;;;12.45;4.63;;;;;;;;;;5045632;28;20086;-63
2021/04/04 05:45:45;;;;;;;12.75;4.78;;;;;;;;;;5054106;28;20048;-63
2021/04/04 05:48:35;;;;;;;21.02;4.70;;;;;;;;;;5066271;28;20030;-63
2021/04/04 05:51:06;;;;;;;18.73;4.18;;;;;;;;;;5084231;27;20028;-64
2021/04/04 05:53:50;;;;;;;15.05;5.00;;;;;;;;;;5075145;28;20911;-64
2021/04/04 05:56:35;;;;;;;15.95;4.40;;;;;;;;;;5064751;28;20571;-62
2021/04/04 05:59:03;;;;;;;12.25;3.85;;;;;;;;;;5076313;28;20161;-63
2021/04/04 06:01:28;;;;;;;11.52;4.07;;;;;;;;;;5084681;28;20143;-63
2021/04/04 06:04:09;;;;;;;16.63;4.60;;;;;;;;;;5050503;28;20798;-63
2021/04/04 06:06:50;;;;;;;12.95;5.45;;;;;;;;;;5054377;28;20108;-64
2021/04/04 06:09:25;;;;;;;12.23;4.10;;;;;;;;;;5085072;28;20072;-63
2021/04/04 06:11:50;;;;;;;;;;;;;;;;;;5052788;28;20545;-63
2021/04/04 06:14:18;;;;;;;11.57;3.65;;;;;;;;;;5059120;28;19920;-64
2021/04/04 06:16:51;;;;;;;13.27;4.22;;;;;;;;;;5085374;28;20387;-63
2021/04/04 06:19:17;;;;;;;17.00;4.47;;;;;;;;;;5048975;27;20471;-63
2021/04/04 06:21:54;;;;;;;12.63;4.78;;;;;;;;;;5064830;28;20028;-64
2021/04/04 06:24:25;;;;;;;13.82;4.55;;;;;;;;;;5085473;28;20031;-64
2021/04/04 06:26:55;;;;;;;14.73;4.50;;;;;;;;;;5064316;28;20028;-63
2021/04/04 06:29:33;;;;;;;11.77;4.25;;;;;;;;;;5071844;27;20047;-63
2021/04/04 06:31:59;;;;;;;16.67;4.03;;;;;;;;;;5056251;27;20023;-65
2021/04/04 06:34:39;;;;;;;18.90;5.90;;;;;;;;;;5073319;27;20510;-63
2021/04/04 06:37:24;;;;;;;15.30;4.00;;;;;;;;;;5089674;27;20084;-64
2021/04/04 06:40:02;;;;;;;13.15;5.03;;;;;;;;;;5089550;27;20418;-62
2021/04/04 06:42:48;;;;;;;14.07;4.47;;;;;;;;;;5088767;27;20034;-62
2021/04/04 06:45:32;;;;;;;18.45;4.43;;;;;;;;;;5019718;27;20848;-64
2021/04/04 06:48:17;;;;;;;11.25;3.97;;;;;;;;;;5072956;27;20031;-64
2021/04/04 06:50:49;;;;;;;12.48;4.50;;;;;;;;;;5054993;27;20089;-63
2021/04/04 06:53:37;;;;;;;13.00;4.07;;;;;;;;;;5070607;27;20077;-65
2021/04/04 06:56:23;;;;;;;16.85;4.80;;;;;;;;;;5053446;27;21886;-62
2021/04/04 06:58:59;;;;;;;13.20;5.00;;;;;;;;;;5089283;27;20022;-63
2021/04/04 07:01:47;;;;;;;16.05;4.57;;;;;;;;;;5069658;27;20039;-63
2021/04/04 07:04:22;;;;;;;18.35;4.30;;;;;;;;;;5088906;27;20123;-62
2021/04/04 07:06:51;;;;;;;25.98;5.50;;;;;;;;;;5069814;27;20502;-64
2021/04/04 07:09:36;;;;;;;15.07;5.43;;;;;;;;;;5070039;27;20117;-63
2021/04/04 07:12:14;;;;;;;14.77;5.45;;;;;;;;;;5089052;27;20023;-63
2021/04/04 07:14:43;;;;;;;16.73;5.38;;;;;;;;;;5086762;27;20146;-61
2021/04/04 07:17:27;;;;;;;16.90;5.03;;;;;;;;;;5089711;27;20690;-63
2021/04/04 07:20:00;;;;;;;18.10;5.18;;;;;;;;;;5091217;27;20031;-65
2021/04/04 07:22:46;;;;;;;19.57;5.27;;;;;;;;;;5065270;27;20042;-64
2021/04/04 07:25:15;;;;;;;12.33;4.90;;;;;;;;;;5051616;27;20042;-64
2021/04/04 07:27:59;;;;;;;16.58;4.65;;;;;;;;;;5051833;27;20085;-63
2021/04/04 07:30:33;;;;;;;14.77;4.55;;;;;;;;;;5063694;27;20036;-64
2021/04/04 07:33:24;;;;;;;18.00;5.35;;;;;;;;;;5088345;27;20093;-62
2021/04/04 07:36:02;;;;;;;14.45;4.32;;;;;;;;;;5069581;27;20046;-65
2021/04/04 07:38:39;;;;;;;17.30;3.97;;;;;;;;;;5066771;27;20070;-64
2021/04/04 07:41:17;;;;;;;15.18;4.30;;;;;;;;;;5071535;27;20040;-64
2021/04/04 07:43:53;;;;;;;14.27;4.25;;;;;;;;;;5056232;27;20038;-65
2021/04/04 07:46:40;;;;;;;10.63;3.80;;;;;;;;;;5073371;27;20054;-64
2021/04/04 07:49:05;;;;;;;9.27;2.70;;;;;;;;;;5054433;27;20154;-63
2021/04/04 07:51:32;;;;;;;8.38;2.88;;;;;;;;;;5088877;27;20047;-63
2021/04/04 07:54:02;;;;;;;8.73;2.75;;;;;;;;;;5088302;27;20084;-64
2021/04/04 07:56:30;;;;;;;12.75;2.55;;;;;;;;;;5087355;27;20028;-64
2021/04/04 07:58:58;;;;;;;9.98;2.50;;;;;;;;;;5077382;27;20122;-65
2021/04/04 08:01:28;;;;;;;10.52;2.53;;;;;;;;;;5079263;28;20042;-63
2021/04/04 08:04:07;;;;;;;10.18;3.38;;;;;;;;;;5072539;28;20505;-62
2021/04/04 08:06:35;;;;;;;11.65;3.40;;;;;;;;;;5071638;27;20066;-63
2021/04/04 08:09:01;;;;;;;15.27;3.95;;;;;;;;;;5087137;27;20028;-64
2021/04/04 08:11:35;;;;;;;9.75;3.35;;;;;;;;;;5068778;28;20058;-64
2021/04/04 08:14:08;;;;;;;12.52;4.43;;;;;;;;;;5068278;27;20126;-64
2021/04/04 08:16:51;;;;;;;11.65;3.95;;;;;;;;;;5085947;27;20020;-64
2021/04/04 08:19:22;;;;;;;17.65;3.90;;;;;;;;;;5072254;27;20067;-63
2021/04/04 08:22:04;;;;;;;11.57;3.25;;;;;;;;;;5050840;27;20040;-64
2021/04/04 08:24:35;;;;;;;12.43;2.80;;;;;;;;;;5070839;28;20051;-64
2021/04/04 08:27:21;;;;;;;11.63;2.75;;;;;;;;;;5050166;27;21133;-64
2021/04/04 08:29:49;;;;;;;13.82;3.78;;;;;;;;;;5035576;27;20035;-63
2021/04/04 08:32:28;;;;;;;15.88;3.20;;;;;;;;;;5069614;27;20027;-62
2021/04/04 08:34:57;;;;;;;13.38;3.15;;;;;;;;;;5086007;27;20023;-64
2021/04/04 08:37:27;;;;;;;9.77;2.67;;;;;;;;;;5071926;27;20058;-64
2021/04/04 08:39:54;;;;;;;13.27;2.80;;;;;;;;;;5068921;27;20031;-63
2021/04/04 08:42:22;;;;;;;7.07;2.00;;;;;;;;;;5088825;27;20085;-64
2021/04/04 08:44:53;;;;;;;11.27;1.80;;;;;;;;;;5087327;27;20035;-65
2021/04/04 08:47:38;;;;;;;8.30;1.73;;;;;;;;;;5089675;27;20047;-64
2021/04/04 08:50:08;;;;;;;15.20;2.58;;;;;;;;;;5054446;28;20079;-65
2021/04/04 08:52:38;;;;;;;10.60;2.60;;;;;;;;;;5085383;27;20027;-63
2021/04/04 08:55:06;;;;;;;10.70;2.42;;;;;;;;;;5072750;27;20028;-67
2021/04/04 08:57:38;;;;;;;12.55;1.92;;;;;;;;;;5067442;27;20073;-64
2021/04/04 09:00:07;;;;;;;7.23;2.10;;;;;;;;;;5061085;28;20027;-61
2021/04/04 09:02:38;;;;;;;11.32;2.17;;;;;;;;;;5069163;28;20783;-63
2021/04/04 09:05:06;;;;;;;6.93;2.20;;;;;;;;;;5069658;27;20035;-63
2021/04/04 09:07:34;;;;;;;12.27;2.78;;;;;;;;;;5085675;27;20015;-62
2021/04/04 09:09:59;;;;;;;5.18;1.38;;;;;;;;;;5070003;27;20023;-62
2021/04/04 09:12:34;;;;;;;11.93;2.00;;;;;;;;;;5086943;27;20035;-63
2021/04/04 09:15:04;;;;;;;8.18;1.02;;;;;;;;;;5086838;27;20084;-64
2021/04/04 09:17:31;;;;;;;11.98;2.10;;;;;;;;;;5059018;28;20036;-63
2021/04/04 09:20:00;;;;;;;14.32;1.92;;;;;;;;;;5070275;28;20080;-63
2021/04/04 09:22:26;;;;;;;7.55;1.55;;;;;;;;;;5082913;27;20032;-64
2021/04/04 09:24:58;;;;;;;7.75;1.70;;;;;;;;;;5086030;27;20774;-69
2021/04/04 09:27:25;;;;;;;8.32;1.73;;;;;;;;;;5084120;27;20602;-62
2021/04/04 09:29:54;;;;;;;9.07;1.35;;;;;;;;;;5074362;28;20027;-62
2021/04/04 09:32:35;;;;;;;7.00;1.50;;;;;;;;;;5084638;27;20106;-62
2021/04/04 09:35:04;;;;;;;6.28;1.50;;;;;;;;;;5085990;27;20044;-63
2021/04/04 09:37:32;;;;;;;12.80;1.88;;;;;;;;;;5068023;27;20063;-62
2021/04/04 09:40:03;;;;;;;12.57;1.23;;;;;;;;;;5085469;27;20032;-63
2021/04/04 09:42:38;;;;;;;7.63;1.17;;;;;;;;;;5085457;27;20074;-63
2021/04/04 09:45:16;;;;;;;11.05;1.20;;;;;;;;;;5083908;27;20023;-63
2021/04/04 09:47:42;;;;;;;9.52;1.60;;;;;;;;;;5049299;28;20093;-63
2021/04/04 09:50:24;;;;;;;9.93;1.40;;;;;;;;;;5088858;27;20108;-62
2021/04/04 09:52:51;;;;;;;6.45;1.70;;;;;;;;;;5081056;27;20031;-63
2021/04/04 09:55:18;;;;;;;4.50;0.90;;;;;;;;;;5083360;27;21019;-62
2021/04/04 09:57:46;;;;;;;14.15;2.60;;;;;;;;;;5077168;27;20031;-63
2021/04/04 10:00:26;;;;;;;5.47;1.15;;;;;;;;;;5083436;27;20042;-62
2021/04/04 10:02:55;;;;;;;14.73;1.90;;;;;;;;;;5085713;28;20086;-65
2021/04/04 10:05:37;;;;;;;12.00;1.23;;;;;;;;;;5084915;27;20039;-64
2021/04/04 10:08:07;;;;;;;8.68;1.83;;;;;;;;;;5057799;28;20471;-64
2021/04/04 10:10:36;;;;;;;7.55;1.25;;;;;;;;;;5088172;27;20035;-63
2021/04/04 10:13:02;;;;;;;6.85;1.20;;;;;;;;;;5084189;28;20133;-63
2021/04/04 10:15:37;;;;;;;7.93;1.65;;;;;;;;;;5086130;28;20035;-62
2021/04/04 10:18:06;;;;;;;11.55;2.05;;;;;;;;;;5084169;27;20846;-64
2021/04/04 10:20:36;;;;;;;9.82;1.90;;;;;;;;;;5070527;28;20039;-65
2021/04/04 10:23:05;;;;;;;11.30;1.60;;;;;;;;;;5051592;28;20118;-65
2021/04/04 10:25:30;;;;;;;4.75;1.33;;;;;;;;;;5070169;28;20129;-65
2021/04/04 10:27:57;;;;;;;4.45;1.38;;;;;;;;;;5068309;28;20023;-63
2021/04/04 10:30:27;;;;;;;12.02;1.60;;;;;;;;;;5085429;28;20036;-63
2021/04/04 10:33:14;;;;;;;9.55;1.55;;;;;;;;;;5086569;28;20058;-63
2021/04/04 10:35:42;;;;;;;9.63;1.70;;;;;;;;;;5065892;28;20093;-63
2021/04/04 10:38:10;;;;;;;8.15;1.35;;;;;;;;;;5089979;28;20043;-64
2021/04/04 10:40:43;;;;;;;10.38;1.67;;;;;;;;;;5064710;28;20032;-64
2021/04/04 10:43:14;;;;;;;13.45;2.08;;;;;;;;;;5084105;28;20040;-64
2021/04/04 10:46:15;;;;;;;10.20;1.60;;;;;;;;;;5053696;28;20089;-63
2021/04/04 10:48:42;;;;;;;9.10;1.63;;;;;;;;;;5024727;28;20073;-64
2021/04/04 10:51:08;;;;;;;7.78;1.77;;;;;;;;;;5070655;28;20035;-65
2021/04/04 10:53:34;;;;;;;7.28;1.25;;;;;;;;;;5069982;28;20024;-62
2021/04/04 10:56:00;;;;;;;12.68;2.38;;;;;;;;;;5067727;28;20055;-64
2021/04/04 10:58:27;;;;;;;7.68;1.83;;;;;;;;;;5062498;28;20906;-64
2021/04/04 11:00:53;;;;;;;8.43;2.08;;;;;;;;;;5084251;28;20081;-64
2021/04/04 11:03:19;;;;;;;15.73;2.28;;;;;;;;;;5069511;28;20039;-65
2021/04/04 11:05:49;;;;;;;11.18;1.73;;;;;;;;;;5086461;28;20032;-64
2021/04/04 11:08:17;;;;;;;12.05;1.77;;;;;;;;;;5064425;28;20576;-65
2021/04/04 11:10:43;;;;;;;7.03;1.50;;;;;;;;;;5070974;28;20023;-63
2021/04/04 11:13:13;;;;;;;8.27;1.85;;;;;;;;;;5050272;28;20059;-64
2021/04/04 11:15:49;;;;;;;8.15;1.50;;;;;;;;;;5072371;27;20062;-62
2021/04/04 11:18:19;;;;;;;10.27;1.60;;;;;;;;;;5074659;27;20046;-64
2021/04/04 11:20:48;;;;;;;10.80;1.73;;;;;;;;;;5060973;27;20042;-64
2021/04/04 11:23:17;;;;;;;12.05;2.28;;;;;;;;;;5052997;27;20510;-65
2021/04/04 11:25:43;;;;;;;4.90;1.75;;;;;;;;;;5088066;27;20040;-65
2021/04/04 11:28:15;;;;;;;9.85;1.73;;;;;;;;;;5051016;27;20863;-64
2021/04/04 11:30:41;;;;;;;10.40;1.50;;;;;;;;;;5084476;27;20114;-64
2021/04/04 11:33:16;;;;;;;5.45;1.40;;;;;;;;;;5046548;27;20035;-63
2021/04/04 11:36:02;;;;;;;8.07;1.33;;;;;;;;;;5072244;27;20027;-64
2021/04/04 11:38:34;;;;;;;13.15;1.90;;;;;;;;;;5068744;27;20093;-65
2021/04/04 11:41:13;;;;;;;10.52;2.15;;;;;;;;;;5086196;27;20051;-63
2021/04/04 11:43:41;;;;;;;7.03;1.50;;;;;;;;;;5087358;27;20069;-65
2021/04/04 11:46:28;;;;;;;5.07;1.13;;;;;;;;;;5070300;27;20052;-64
2021/04/04 11:48:58;;;;;;;8.88;1.48;;;;;;;;;;5086489;27;20035;-64
2021/04/04 11:51:30;;;;;;;14.57;1.58;;;;;;;;;;5088587;27;20072;-63
2021/04/04 11:53:55;;;;;;;9.05;1.88;;;;;;;;;;5090003;27;21835;-65
2021/04/04 11:56:42;;;;;;;7.18;1.70;;;;;;;;;;5088832;27;20066;-63
2021/04/04 11:59:12;;;;;;;9.52;1.45;;;;;;;;;;5087832;27;20039;-65
2021/04/04 12:01:40;;;;;;;8.93;2.08;;;;;;;;;;5069688;27;20028;-63
2021/04/04 12:04:45;;;;;;;8.77;1.58;;;;;;;;;;5087644;27;20059;-63
2021/04/04 12:07:16;;;;;;;5.32;1.63;;;;;;;;;;5035714;27;20132;-65
2021/04/04 12:09:44;;;;;;;8.10;1.40;;;;;;;;;;5067510;27;20120;-64
2021/04/04 12:12:13;;;;;;;10.32;1.60;;;;;;;;;;5049657;27;20035;-64
2021/04/04 12:14:50;;;;;;;11.82;2.10;;;;;;;;;;5070418;27;20039;-63
2021/04/04 12:17:16;;;;;;;9.30;1.95;;;;;;;;;;5070846;28;20085;-61
2021/04/04 12:19:46;;;;;;;12.10;2.03;;;;;;;;;;5066299;27;20050;-63
2021/04/04 12:22:14;;;;;;;11.85;2.13;;;;;;;;;;5082470;27;20166;-64
2021/04/04 12:24:39;;;;;;;6.43;2.20;;;;;;;;;;5086318;27;20567;-63
2021/04/04 12:27:10;;;;;;;12.35;2.22;;;;;;;;;;5087187;27;20039;-63
2021/04/04 12:29:39;;;;;;;10.18;2.15;;;;;;;;;;5085358;27;20032;-73
2021/04/04 12:32:08;;;;;;;16.45;2.10;;;;;;;;;;5065960;27;20031;-64
2021/04/04 12:34:41;;;;;;;13.93;1.98;;;;;;;;;;5060133;28;20031;-66
2021/04/04 12:37:15;;;;;;;9.95;2.20;;;;;;;;;;5070143;27;20039;-61
2021/04/04 12:39:45;;;;;;;11.63;1.77;;;;;;;;;;5068057;27;20042;-63
2021/04/04 12:42:17;;;;;;;7.78;1.75;;;;;;;;;;5067269;27;20054;-64
2021/04/04 12:44:49;;;;;;;7.63;1.95;;;;;;;;;;5067290;27;20047;-63
2021/04/04 12:47:18;;;;;;;13.38;2.70;;;;;;;;;;5085835;27;20140;-63
2021/04/04 12:49:52;;;;;;;7.50;2.55;;;;;;;;;;5069344;28;20036;-63
2021/04/04 12:52:34;;;;;;;10.63;1.98;;;;;;;;;;5065399;27;20028;-63
2021/04/04 12:55:13;;;;;;;10.13;2.10;;;;;;;;;;5054731;28;20032;-63
2021/04/04 12:57:39;;;;;;;11.43;1.88;;;;;;;;;;5086379;27;20059;-63
2021/04/04 13:00:08;;;;;;;8.90;2.58;;;;;;;;;;5069305;28;20039;-62
2021/04/04 13:02:34;;;;;;;8.75;2.10;;;;;;;;;;5088464;27;20024;-64
2021/04/04 13:05:02;;;;;;;8.70;2.55;;;;;;;;;;5054413;28;21443;-65
2021/04/04 13:07:30;;;;;;;7.68;2.20;;;;;;;;;;5074562;27;20115;-65
2021/04/04 13:10:01;;;;;;;8.63;2.60;;;;;;;;;;5067935;27;20026;-64
2021/04/04 13:12:27;;;;;;;6.38;2.50;;;;;;;;;;5074991;28;20032;-65
2021/04/04 13:14:55;;;;;;;10.43;2.60;;;;;;;;;;5070633;27;20036;-64
2021/04/04 13:17:23;;;;;;;7.55;2.08;;;;;;;;;;5082864;27;20032;-63
2021/04/04 13:19:50;;;;;;;9.15;1.88;;;;;;;;;;5052066;27;20047;-65
2021/04/04 13:22:17;;;;;;;9.00;2.40;;;;;;;;;;5051674;28;20888;-62
2021/04/04 13:24:43;;;;;;;10.65;2.78;;;;;;;;;;5086005;27;20047;-64
2021/04/04 13:27:09;;;;;;;6.15;2.55;;;;;;;;;;5065823;27;20036;-65
2021/04/04 13:29:38;;;;;;;12.52;2.35;;;;;;;;;;5051649;28;20043;-66
2021/04/04 13:32:10;;;;;;;8.23;2.13;;;;;;;;;;5083629;27;20059;-67
2021/04/04 13:34:39;;;;;;;10.43;2.13;;;;;;;;;;5065664;27;20062;-64
2021/04/04 13:37:07;;;;;;;11.27;2.13;;;;;;;;;;5068587;28;20023;-65
2021/04/04 13:39:40;;;;;;;5.43;2.28;;;;;;;;;;5058359;28;20035;-63
2021/04/04 13:42:11;;;;;;;12.35;2.75;;;;;;;;;;5084141;27;20058;-62
2021/04/04 13:44:41;;;;;;;8.70;2.58;;;;;;;;;;5066898;27;20617;-64
2021/04/04 13:47:18;;;;;;;11.55;2.97;;;;;;;;;;5065291;28;20045;-64
2021/04/04 13:49:45;;;;;;;9.48;2.20;;;;;;;;;;5071220;28;20092;-64
2021/04/04 13:52:15;;;;;;;6.32;2.60;;;;;;;;;;5063287;28;20040;-71
2021/04/04 13:54:41;;;;;;;10.52;2.38;;;;;;;;;;5062827;28;20028;-64
2021/04/04 13:57:10;;;;;;;11.48;2.45;;;;;;;;;;5058651;28;20043;-61
2021/04/04 13:59:45;;;;;;;10.32;2.67;;;;;;;;;;5047514;28;20157;-63
2021/04/04 14:02:15;;;;;;;10.25;2.53;;;;;;;;;;5056750;28;20043;-63
2021/04/04 14:04:44;;;;;;;10.38;3.15;;;;;;;;;;5055907;28;20152;-64
2021/04/04 14:07:10;;;;;;;11.30;3.13;;;;;;;;;;5056467;28;20103;-63
2021/04/04 14:09:38;;;;;;;13.57;3.90;;;;;;;;;;5058392;28;20042;-72
2021/04/04 14:12:07;;;;;;;8.68;3.00;;;;;;;;;;5048119;28;20044;-66
2021/04/04 14:14:34;;;;;;;10.23;3.38;;;;;;;;;;5031592;28;20130;-67
2021/04/04 14:17:02;;;;;;;13.75;3.35;;;;;;;;;;5053789;28;20036;-63
2021/04/04 14:19:28;;;;;;;19.20;4.43;;;;;;;;;;5038872;28;20465;-62
2021/04/04 14:21:55;;;;;;;14.00;3.85;;;;;;;;;;5064333;28;20570;-63
2021/04/04 14:24:22;;;;;;;14.05;4.43;;;;;;;;;;5061537;28;20032;-63
2021/04/04 14:26:52;;;;;;;14.68;3.30;;;;;;;;;;5044276;28;20057;-64
2021/04/04 14:29:18;;;;;;;15.02;4.18;;;;;;;;;;5040261;28;20094;-64
2021/04/04 14:31:45;;;;;;;19.80;4.50;;;;;;;;;;5052942;28;20043;-67
2021/04/04 14:34:13;;;;;;;16.58;4.40;;;;;;;;;;5053650;28;20121;-64
2021/04/04 14:36:39;;;;;;;13.77;4.20;;;;;;;;;;5058944;28;20032;-68
2021/04/04 14:39:05;;;;;;;16.50;4.70;;;;;;;;;;5040902;28;20540;-66
2021/04/04 14:41:31;;;;;;;16.40;5.60;;;;;;;;;;5068166;28;20066;-65
2021/04/04 14:46:23;;;;;;;19.42;6.22;;;;;;;;;;5057476;28;20168;-66
2021/04/04 14:48:49;;;;;;;14.75;5.50;;;;;;;;;;5064417;28;20051;-65
2021/04/04 14:51:15;;;;;;;16.90;5.75;;;;;;;;;;5062351;28;20020;-63
2021/04/04 14:53:41;;;;;;;16.70;5.70;;;;;;;;;;5051887;28;20097;-63
2021/04/04 14:56:08;;;;;;;12.73;5.28;;;;;;;;;;5062258;28;20127;-63
2021/04/04 14:58:36;;;;;;;16.88;5.72;;;;;;;;;;5064651;28;20032;-67